sensor_id;sensor_type;location;lat;lon;timestamp;pressure;altitude;pressure_sealevel;temperature;humidity
26178;BME280;13924;47.670;10.310;2023-06-24T04:22:27;94360;;;15.5;100.0
26178;BME280;13924;47.670;10.310;2023-06-24T04:37:27;94520;;;15.2;100.0
26178;BME280;13924;47.670;10.310;2023-06-24T04:52:25;94530;;;14.8;100.0
26178;BME280;13924;47.670;10.310;2023-06-24T05:07:26;94600;;;14.7;100.0
26178;BME280;13924;47.670;10.310;2023-06-24T05:22:27;94490;;;15.4;100.0
26178;BME280;13924;47.670;10.310;2023-06-24T05:52:28;94330;;;16.3;100.0
26178;BME280;13924;47.670;10.310;2023-06-24T06:07:32;94330;;;16.3;100.0
26178;BME280;13924;47.670;10.310;2023-06-24T06:22:30;94310;;;16.1;100.0
26178;BME280;13924;47.670;10.310;2023-06-24T06:37:29;94370;;;16.0;100.0
26178;BME280;13924;47.670;10.310;2023-06-24T06:52:30;94290;;;16.5;100.0
26178;BME280;13924;47.670;10.310;2023-06-24T07:07:31;94270;;;16.8;100.0
26178;BME280;13924;47.670;10.310;2023-06-24T07:22:33;94230;;;17.2;100.0
26178;BME280;13924;47.670;10.310;2023-06-24T07:37:34;94210;;;17.4;100.0
26178;BME280;13924;47.670;10.310;2023-06-24T07:52:35;94170;;;18.2;100.0
26178;BME280;13924;47.670;10.310;2023-06-24T08:07:35;94160;;;18.9;100.0
26178;BME280;13924;47.670;10.310;2023-06-24T08:22:37;94160;;;19.4;100.0
26178;BME280;13924;47.670;10.310;2023-06-24T08:37:37;94130;;;19.9;100.0
26178;BME280;13924;47.670;10.310;2023-06-24T08:52:38;94120;;;20.2;100.0
26178;BME280;13924;47.670;10.310;2023-06-24T09:07:41;94120;;;20.2;100.0
26178;BME280;13924;47.670;10.310;2023-06-24T09:22:40;94130;;;20.6;100.0
26178;BME280;13924;47.670;10.310;2023-06-24T09:37:48;94130;;;20.6;100.0
26178;BME280;13924;47.670;10.310;2023-06-24T09:52:41;94100;;;21.5;100.0
26178;BME280;13924;47.670;10.310;2023-06-24T10:07:42;94100;;;21.5;98.6
26178;BME280;13924;47.670;10.310;2023-06-24T10:22:46;94080;;;22.0;100.0
26178;BME280;13924;47.670;10.310;2023-06-24T10:37:54;94060;;;22.4;93.6
26178;BME280;13924;47.670;10.310;2023-06-24T10:52:44;94040;;;22.7;90.7
26178;BME280;13924;47.670;10.310;2023-06-24T11:07:43;94030;;;23.4;94.8
26178;BME280;13924;47.670;10.310;2023-06-24T11:22:44;94020;;;23.5;88.1
26178;BME280;13924;47.670;10.310;2023-06-24T11:37:46;94010;;;23.7;79.3
26178;BME280;13924;47.670;10.310;2023-06-24T11:52:47;94000;;;24.5;76.8
26178;BME280;13924;47.670;10.310;2023-06-24T12:07:47;94000;;;24.5;76.8
26178;BME280;13924;47.670;10.310;2023-06-24T12:22:47;93960;;;25.3;73.1
26178;BME280;13924;47.670;10.310;2023-06-24T12:37:49;93960;;;25.3;73.1
26178;BME280;13924;47.670;10.310;2023-06-24T12:52:48;93940;;;25.4;59.6
26178;BME280;13924;47.670;10.310;2023-06-24T13:07:49;93930;;;25.5;55.0
26178;BME280;13924;47.670;10.310;2023-06-24T13:22:50;93940;;;25.9;61.0
26178;BME280;13924;47.670;10.310;2023-06-24T13:37:50;93920;;;26.6;62.3
26178;BME280;13924;47.670;10.310;2023-06-24T13:52:50;93910;;;26.7;56.3
26178;BME280;13924;47.670;10.310;2023-06-24T14:07:50;93900;;;27.0;56.1
26178;BME280;13924;47.670;10.310;2023-06-24T14:22:52;93890;;;26.6;48.6
26178;BME280;13924;47.670;10.310;2023-06-24T14:37:52;93880;;;26.5;54.0
26178;BME280;13924;47.670;10.310;2023-06-24T14:52:53;93870;;;26.7;58.4
26178;BME280;13924;47.670;10.310;2023-06-24T15:07:54;93870;;;27.1;52.9
26178;BME280;13924;47.670;10.310;2023-06-24T15:22:54;93850;;;26.7;49.4
26178;BME280;13924;47.670;10.310;2023-06-24T15:37:54;93850;;;27.2;52.9
26178;BME280;13924;47.670;10.310;2023-06-24T15:52:58;93850;;;27.2;52.9
26178;BME280;13924;47.670;10.310;2023-06-24T17:08:01;93840;;;27.0;49.4
26178;BME280;13924;47.670;10.310;2023-06-24T17:22:59;93790;;;25.5;54.3
26178;BME280;13924;47.670;10.310;2023-06-24T17:37:59;93790;;;25.0;67.2
26178;BME280;13924;47.670;10.310;2023-06-24T17:53:00;93780;;;25.4;64.3
26178;BME280;13924;47.670;10.310;2023-06-24T18:08:01;93770;;;24.8;61.2
26178;BME280;13924;47.670;10.310;2023-06-24T18:23:02;93780;;;25.0;72.2
26178;BME280;13924;47.670;10.310;2023-06-24T18:53:02;93770;;;23.1;71.6
26178;BME280;13924;47.670;10.310;2023-06-24T19:08:06;93770;;;23.1;71.6
26178;BME280;13924;47.670;10.310;2023-06-24T19:23:05;93770;;;23.3;81.5
26178;BME280;13924;47.670;10.310;2023-06-24T19:38:05;93770;;;23.3;83.0
26178;BME280;13924;47.670;10.310;2023-06-24T19:53:06;93780;;;23.2;83.9
26178;BME280;13924;47.670;10.310;2023-06-24T20:08:09;93780;;;23.0;88.0
26178;BME280;13924;47.670;10.310;2023-06-24T20:23:08;93780;;;22.9;89.5
26178;BME280;13924;47.670;10.310;2023-06-24T20:38:08;93770;;;22.7;91.7
26178;BME280;13924;47.670;10.310;2023-06-24T20:53:11;93770;;;22.7;91.7
26178;BME280;13924;47.670;10.310;2023-06-24T21:08:13;93770;;;22.4;93.5
26178;BME280;13924;47.670;10.310;2023-06-24T21:23:12;93770;;;22.3;93.1
26178;BME280;13924;47.670;10.310;2023-06-24T21:38:10;93750;;;22.0;96.4
26178;BME280;13924;47.670;10.310;2023-06-24T21:53:12;93750;;;21.8;97.0
26178;BME280;13924;47.670;10.310;2023-06-24T22:00:40;93750;;;21.8;97.0
26178;BME280;13924;47.670;10.310;2023-06-24T22:15:49;93750;;;21.8;97.6
26178;BME280;13924;47.670;10.310;2023-06-24T22:30:42;93740;;;21.5;100.0
26178;BME280;13924;47.670;10.310;2023-06-24T22:45:42;93730;;;21.3;100.0
26178;BME280;13924;47.670;10.310;2023-06-24T23:00:46;93710;;;20.1;100.0
26178;BME280;13924;47.670;10.310;2023-06-24T23:15:42;93710;;;20.1;100.0
26178;BME280;13924;47.670;10.310;2023-06-24T23:30:46;93690;;;19.4;100.0
26178;BME280;13924;47.670;10.310;2023-06-24T23:45:48;93680;;;19.1;100.0
